createdAt,value
2019-01-20T00:00:33.518Z,46.10
2019-01-20T00:02:59.896Z,48.23
2019-01-20T00:05:26.266Z,41.10
2019-01-20T00:07:52.738Z,48.20
2019-01-20T00:10:19.140Z,49.00
2019-01-20T00:12:45.555Z,51.43
2019-01-20T00:15:15.429Z,42.90
2019-01-20T00:17:41.831Z,49.50
2019-01-20T00:20:08.300Z,49.63
2019-01-20T00:22:34.672Z,52.40
2019-01-20T00:25:01.030Z,43.13
2019-01-20T00:27:27.459Z,43.27
2019-01-20T00:29:53.837Z,45.30
2019-01-20T00:32:20.224Z,42.40
2019-01-20T00:34:46.618Z,45.93
2019-01-20T00:37:12.983Z,43.90
2019-01-20T00:39:39.385Z,46.63
2019-01-20T00:42:05.763Z,40.73
2019-01-20T00:44:32.135Z,56.17
2019-01-20T00:46:58.502Z,52.57
2019-01-20T00:49:24.849Z,43.30
2019-01-20T00:51:51.342Z,44.33
2019-01-20T00:54:18.883Z,40.43
2019-01-20T00:56:45.245Z,44.63
2019-01-20T00:59:11.649Z,44.57
2019-01-20T01:01:38.043Z,35.97
2019-01-20T01:04:04.489Z,40.20
2019-01-20T01:06:30.877Z,38.83
2019-01-20T01:08:57.280Z,40.47
2019-01-20T01:11:23.679Z,35.07
2019-01-20T01:13:50.024Z,43.97
2019-01-20T01:16:16.411Z,42.50
2019-01-20T01:18:42.745Z,37.27
2019-01-20T01:21:09.183Z,41.37
2019-01-20T01:23:35.520Z,42.63
2019-01-20T01:26:01.908Z,48.90
2019-01-20T01:28:28.248Z,43.07
2019-01-20T01:30:54.637Z,42.70
2019-01-20T01:33:20.990Z,41.77
2019-01-20T01:35:47.419Z,44.10
2019-01-20T01:38:13.800Z,43.93
2019-01-20T01:40:40.270Z,40.67
2019-01-20T01:43:06.624Z,45.70
2019-01-20T01:45:33.048Z,40.03
2019-01-20T01:47:59.384Z,38.67
2019-01-20T01:50:25.740Z,43.33
2019-01-20T01:52:52.080Z,49.17
2019-01-20T01:55:18.438Z,46.77
2019-01-20T01:57:44.809Z,50.80
2019-01-20T02:00:16.894Z,44.97
2019-01-20T02:02:43.231Z,57.63
2019-01-20T02:05:09.572Z,49.40
2019-01-20T02:07:35.943Z,38.80
2019-01-20T02:10:05.667Z,46.03
2019-01-20T02:12:32.057Z,41.47
2019-01-20T02:14:58.375Z,42.80
2019-01-20T02:17:24.778Z,57.47
2019-01-20T02:19:51.106Z,56.73
2019-01-20T02:22:17.484Z,54.77
2019-01-20T02:24:43.808Z,47.57
2019-01-20T02:27:10.213Z,52.87
2019-01-20T02:29:36.566Z,54.60
2019-01-20T02:32:03.793Z,45.53
2019-01-20T02:34:30.143Z,65.83
2019-01-20T02:36:56.510Z,63.60
2019-01-20T02:39:22.919Z,46.40
2019-01-20T02:41:55.018Z,54.27
2019-01-20T02:44:17.423Z,48.50
2019-01-20T02:46:43.829Z,58.67
2019-01-20T02:49:10.229Z,45.93
2019-01-20T02:51:36.748Z,45.47
2019-01-20T02:54:03.200Z,58.20
2019-01-20T02:56:29.630Z,52.50
2019-01-20T02:58:56.032Z,57.13
2019-01-20T03:01:23.681Z,53.37
2019-01-20T03:03:50.089Z,60.00
2019-01-20T03:06:16.436Z,54.73
2019-01-20T03:08:42.780Z,55.63
2019-01-20T03:11:09.164Z,53.50
2019-01-20T03:13:35.631Z,54.40
2019-01-20T03:16:01.952Z,54.80
2019-01-20T03:18:28.310Z,58.77
2019-01-20T03:20:54.687Z,56.67
2019-01-20T03:23:21.091Z,61.10
2019-01-20T03:25:47.474Z,62.47
2019-01-20T03:28:13.804Z,59.73
2019-01-20T03:30:40.155Z,50.47
2019-01-20T03:33:06.590Z,50.13
2019-01-20T03:35:32.931Z,57.30
2019-01-20T03:37:59.308Z,49.20
2019-01-20T03:40:25.624Z,53.33
2019-01-20T03:42:52.011Z,57.43
2019-01-20T03:45:19.462Z,54.87
2019-01-20T03:47:45.846Z,57.47
2019-01-20T03:50:13.907Z,61.10
2019-01-20T03:52:40.224Z,55.23
2019-01-20T03:55:09.494Z,67.30
2019-01-20T03:57:35.862Z,58.37
2019-01-20T04:00:02.819Z,54.80
2019-01-20T04:02:29.205Z,80.57
2019-01-20T04:04:55.728Z,59.53
2019-01-20T04:07:22.088Z,65.63
2019-01-20T04:09:48.421Z,60.30
2019-01-20T04:12:20.472Z,54.30
2019-01-20T04:14:42.924Z,79.67
2019-01-20T04:17:09.411Z,55.47
2019-01-20T04:19:35.723Z,71.93
2019-01-20T04:22:02.131Z,60.70
2019-01-20T04:24:28.456Z,68.00
2019-01-20T04:26:54.867Z,52.67
2019-01-20T04:29:22.379Z,66.37
2019-01-20T04:31:48.838Z,58.03
2019-01-20T04:34:15.234Z,66.10
2019-01-20T04:36:41.580Z,65.27
2019-01-20T04:39:07.904Z,71.13
2019-01-20T04:41:34.252Z,54.93
2019-01-20T04:44:00.581Z,59.17
2019-01-20T04:46:26.936Z,59.13
2019-01-20T04:48:53.314Z,62.97
2019-01-20T04:51:19.720Z,54.80
2019-01-20T04:53:46.474Z,63.73
2019-01-20T04:56:12.904Z,65.20
2019-01-20T04:58:39.348Z,60.30
2019-01-20T05:01:05.680Z,58.07
2019-01-20T05:03:32.087Z,48.63
2019-01-20T05:05:58.744Z,59.33
2019-01-20T05:08:25.131Z,60.47
2019-01-20T05:10:52.530Z,56.00
2019-01-20T05:13:18.867Z,62.77
2019-01-20T05:15:45.247Z,57.17
2019-01-20T05:18:11.650Z,50.00
2019-01-20T05:20:37.969Z,57.27
2019-01-20T05:23:04.300Z,54.40
2019-01-20T05:25:30.679Z,59.47
2019-01-20T05:27:57.074Z,55.97
2019-01-20T05:30:23.392Z,59.53
2019-01-20T05:32:49.786Z,58.43
2019-01-20T05:35:16.144Z,57.13
2019-01-20T05:37:42.504Z,58.93
2019-01-20T05:40:18.110Z,56.77
2019-01-20T05:42:46.412Z,55.87
2019-01-20T05:45:16.088Z,58.77
2019-01-20T05:47:42.469Z,52.23
2019-01-20T05:50:10.820Z,63.77
2019-01-20T05:52:37.301Z,48.73
2019-01-20T05:55:06.452Z,56.13
2019-01-20T05:57:32.846Z,57.87
2019-01-20T05:59:59.249Z,54.97
2019-01-20T06:02:25.572Z,47.10
2019-01-20T06:04:52.495Z,45.83
2019-01-20T06:07:18.854Z,49.77
2019-01-20T06:09:45.293Z,49.73
2019-01-20T06:12:11.655Z,53.97
2019-01-20T06:14:37.976Z,50.00
2019-01-20T06:17:04.383Z,58.47
2019-01-20T06:19:30.695Z,51.23
2019-01-20T06:21:57.028Z,49.07
2019-01-20T06:24:23.372Z,51.53
2019-01-20T06:26:49.783Z,52.73
2019-01-20T06:29:16.160Z,56.37
2019-01-20T06:31:42.507Z,53.33
2019-01-20T06:34:08.894Z,53.80
2019-01-20T06:36:35.210Z,55.57
2019-01-20T06:39:01.666Z,52.40
2019-01-20T06:41:29.950Z,58.73
2019-01-20T06:43:56.421Z,53.90
2019-01-20T06:46:22.788Z,64.20
2019-01-20T06:48:49.160Z,61.40
2019-01-20T06:51:15.499Z,67.37
2019-01-20T06:53:41.938Z,79.23
2019-01-20T06:56:08.340Z,71.00
2019-01-20T06:58:34.738Z,61.30
2019-01-20T07:01:01.141Z,64.13
2019-01-20T07:03:27.585Z,78.97
2019-01-20T07:05:53.948Z,78.90
2019-01-20T07:08:20.370Z,72.10
2019-01-20T07:10:46.776Z,83.07
2019-01-20T07:13:13.158Z,156.17
2019-01-20T07:15:39.554Z,68.30
2019-01-20T07:18:06.420Z,86.23
2019-01-20T07:20:32.767Z,115.13
2019-01-20T07:22:59.088Z,71.43
2019-01-20T07:25:25.430Z,93.53
2019-01-20T07:27:51.810Z,129.67
2019-01-20T07:30:19.718Z,155.40
2019-01-20T07:32:46.037Z,165.27
2019-01-20T07:35:12.988Z,206.43
2019-01-20T07:37:39.323Z,138.47
2019-01-20T07:40:08.770Z,95.03
2019-01-20T07:42:35.071Z,141.80
2019-01-20T07:45:01.435Z,69.40
2019-01-20T07:47:27.773Z,68.50
2019-01-20T07:49:54.254Z,52.40
2019-01-20T07:52:20.582Z,50.43
2019-01-20T07:54:47.981Z,69.73
2019-01-20T07:57:14.336Z,53.90
2019-01-20T07:59:40.688Z,73.10
2019-01-20T08:02:07.052Z,79.47
2019-01-20T08:04:33.473Z,57.93
2019-01-20T08:06:59.926Z,52.77
2019-01-20T08:09:26.312Z,49.00
2019-01-20T08:11:52.673Z,60.90
2019-01-20T08:14:19.060Z,55.43
2019-01-20T08:16:45.495Z,58.00
2019-01-20T08:19:11.935Z,57.77
2019-01-20T08:21:38.266Z,57.77
2019-01-20T08:24:04.711Z,68.00
2019-01-20T08:26:31.042Z,63.80
2019-01-20T08:28:57.521Z,61.30
2019-01-20T08:31:23.953Z,54.13
2019-01-20T08:33:50.278Z,55.30
2019-01-20T08:36:16.694Z,58.90
2019-01-20T08:38:43.037Z,52.43
2019-01-20T08:41:09.397Z,60.50
2019-01-20T08:43:36.056Z,65.70
2019-01-20T08:46:15.283Z,69.27
2019-01-20T08:48:41.734Z,56.30
2019-01-20T08:51:08.103Z,56.00
2019-01-20T08:53:34.532Z,54.33
2019-01-20T08:56:01.035Z,58.47
2019-01-20T08:58:27.426Z,54.00
2019-01-20T09:00:53.785Z,57.83
2019-01-20T09:03:20.485Z,65.83
2019-01-20T09:05:46.864Z,143.37
2019-01-20T09:08:13.274Z,112.10
2019-01-20T09:10:39.674Z,68.97
2019-01-20T09:13:07.623Z,55.40
2019-01-20T09:15:34.092Z,60.60
2019-01-20T09:18:00.465Z,58.20
2019-01-20T09:20:26.816Z,61.03
2019-01-20T09:22:53.225Z,83.77
2019-01-20T09:25:19.560Z,70.47
2019-01-20T09:27:45.966Z,75.47
2019-01-20T09:30:17.964Z,120.13
2019-01-20T09:32:44.410Z,53.23
2019-01-20T09:35:10.802Z,101.30
2019-01-20T09:37:37.213Z,86.63
2019-01-20T09:40:06.173Z,66.90
2019-01-20T09:42:32.634Z,61.53
2019-01-20T09:44:59.059Z,59.43
2019-01-20T09:47:25.490Z,55.83
2019-01-20T09:49:51.972Z,58.53
2019-01-20T09:52:18.291Z,56.83
2019-01-20T09:54:44.690Z,71.63
2019-01-20T09:57:11.109Z,85.17
2019-01-20T09:59:37.514Z,71.80
2019-01-20T10:02:03.935Z,57.63
2019-01-20T10:04:30.359Z,72.67
2019-01-20T10:06:56.857Z,63.47
2019-01-20T10:09:23.313Z,62.97
2019-01-20T10:11:49.768Z,122.33
2019-01-20T10:14:16.235Z,77.30
2019-01-20T10:16:42.722Z,91.33
2019-01-20T10:19:09.893Z,72.67
2019-01-20T10:21:36.641Z,66.17
2019-01-20T10:24:03.186Z,64.13
2019-01-20T10:26:29.648Z,71.77
2019-01-20T10:28:56.028Z,224.10
2019-01-20T10:31:22.381Z,200.00
2019-01-20T10:33:48.755Z,423.63
2019-01-20T10:36:15.215Z,284.03
2019-01-20T10:38:41.726Z,199.73
2019-01-20T10:41:08.045Z,216.00
2019-01-20T10:43:35.606Z,283.53
2019-01-20T10:46:02.067Z,283.57
2019-01-20T10:48:28.629Z,325.83
2019-01-20T10:50:55.067Z,178.90
2019-01-20T10:53:22.154Z,269.93
2019-01-20T10:55:48.732Z,334.37
2019-01-20T10:58:15.164Z,211.00
2019-01-20T11:00:41.717Z,124.63
2019-01-20T11:03:08.128Z,111.90
2019-01-20T11:05:34.531Z,148.00
2019-01-20T11:08:00.909Z,156.10
2019-01-20T11:10:27.301Z,87.77
2019-01-20T11:12:53.799Z,112.60
2019-01-20T11:15:20.247Z,102.40
2019-01-20T11:17:46.685Z,80.53
2019-01-20T11:20:15.488Z,91.80
2019-01-20T11:22:41.865Z,110.40
2019-01-20T11:25:14.190Z,167.70
2019-01-20T11:27:41.618Z,148.30
2019-01-20T11:30:10.390Z,159.00
2019-01-20T11:32:42.323Z,149.53
2019-01-20T11:35:11.429Z,190.43
2019-01-20T11:37:37.797Z,185.93
2019-01-20T11:40:07.734Z,142.23
2019-01-20T11:42:34.186Z,167.83
2019-01-20T11:45:00.628Z,109.53
2019-01-20T11:47:27.132Z,201.63
2019-01-20T11:49:53.492Z,169.37
2019-01-20T11:52:20.067Z,106.50
2019-01-20T11:54:47.157Z,148.43
2019-01-20T11:57:14.451Z,185.10
2019-01-20T11:59:42.120Z,224.63
2019-01-20T12:02:08.642Z,159.47
2019-01-20T12:04:35.007Z,120.70
2019-01-20T12:07:01.333Z,105.63
2019-01-20T12:09:27.714Z,77.57
2019-01-20T12:11:54.050Z,53.37
2019-01-20T12:14:24.210Z,60.30
2019-01-20T12:16:48.648Z,57.33
2019-01-20T12:19:15.067Z,50.80
2019-01-20T12:21:41.448Z,48.30
2019-01-20T12:24:07.876Z,77.67
2019-01-20T12:26:34.842Z,98.07
2019-01-20T12:29:02.259Z,81.83
2019-01-20T12:31:28.663Z,50.43
2019-01-20T12:33:55.009Z,38.73
2019-01-20T12:36:21.478Z,119.33
2019-01-20T12:38:48.501Z,65.07
2019-01-20T12:41:15.059Z,56.27
2019-01-20T12:43:42.003Z,77.90
2019-01-20T12:46:08.603Z,68.57
2019-01-20T12:48:35.062Z,67.00
2019-01-20T12:51:02.338Z,53.97
2019-01-20T12:53:30.030Z,86.87
2019-01-20T12:55:56.674Z,92.33
2019-01-20T12:58:23.181Z,84.60
2019-01-20T13:00:49.708Z,103.37
2019-01-20T13:03:16.156Z,54.83
2019-01-20T13:05:43.352Z,72.33
2019-01-20T13:08:09.916Z,72.87
2019-01-20T13:10:36.368Z,78.13
2019-01-20T13:13:02.766Z,76.33
2019-01-20T13:15:29.930Z,82.13
2019-01-20T13:17:56.449Z,73.27
2019-01-20T13:20:25.290Z,96.43
2019-01-20T13:22:52.203Z,95.63
2019-01-20T13:25:21.405Z,89.33
2019-01-20T13:27:48.411Z,78.13
2019-01-20T13:30:17.303Z,78.03
2019-01-20T13:32:43.739Z,105.93
2019-01-20T13:35:10.333Z,59.83
2019-01-20T13:37:43.795Z,95.60
2019-01-20T13:40:17.718Z,85.47
2019-01-20T13:42:45.039Z,110.27
2019-01-20T13:45:12.620Z,79.23
2019-01-20T13:47:39.999Z,76.83
2019-01-20T13:50:10.388Z,86.57
2019-01-20T13:52:37.923Z,96.53
2019-01-20T13:55:08.075Z,87.03
2019-01-20T13:57:35.274Z,68.03
2019-01-20T14:00:02.056Z,61.43
2019-01-20T14:02:29.442Z,62.13
2019-01-20T14:04:56.787Z,68.00
2019-01-20T14:07:24.017Z,81.10
2019-01-20T14:09:51.103Z,86.23
2019-01-20T14:12:17.612Z,105.77
2019-01-20T14:14:44.754Z,109.00
2019-01-20T14:17:11.234Z,141.80
2019-01-20T14:19:38.337Z,151.50
2019-01-20T14:22:05.546Z,134.23
2019-01-20T14:24:32.049Z,131.40
2019-01-20T14:26:58.497Z,131.50
2019-01-20T14:29:25.567Z,110.07
2019-01-20T14:31:52.449Z,129.57
2019-01-20T14:34:18.922Z,123.90
2019-01-20T14:36:45.835Z,120.10
2019-01-20T14:39:13.257Z,128.60
2019-01-20T14:41:39.874Z,132.57
2019-01-20T14:44:06.220Z,135.40
2019-01-20T14:46:32.657Z,114.57
2019-01-20T14:48:59.024Z,118.30
2019-01-20T14:51:25.423Z,139.10
2019-01-20T14:53:51.811Z,162.93
2019-01-20T14:56:18.316Z,209.60
2019-01-20T14:58:53.780Z,182.23
2019-01-20T15:01:20.210Z,160.00
2019-01-20T15:03:46.630Z,151.70
2019-01-20T15:06:12.978Z,111.77
2019-01-20T15:08:39.450Z,130.07
2019-01-20T15:11:05.837Z,130.23
2019-01-20T15:13:32.265Z,180.63
2019-01-20T15:15:58.640Z,202.10
2019-01-20T15:18:25.002Z,219.97
2019-01-20T15:20:51.469Z,193.33
2019-01-20T15:23:17.858Z,147.90
2019-01-20T15:25:44.287Z,169.97
2019-01-20T15:28:10.821Z,158.40
2019-01-20T15:30:37.222Z,280.60
2019-01-20T15:33:04.518Z,288.50
2019-01-20T15:35:31.131Z,239.00
2019-01-20T15:37:57.689Z,227.27
2019-01-20T15:40:24.220Z,180.00
2019-01-20T15:42:51.971Z,144.70
2019-01-20T15:45:20.536Z,136.80
2019-01-20T15:47:47.366Z,191.83
2019-01-20T15:50:19.980Z,450.67
2019-01-20T15:52:47.341Z,274.33
2019-01-20T15:55:13.768Z,183.30
2019-01-20T15:57:40.196Z,115.30
2019-01-20T16:00:17.703Z,121.27
2019-01-20T16:02:44.106Z,122.50
2019-01-20T16:05:10.460Z,140.23
2019-01-20T16:07:36.938Z,89.37
2019-01-20T16:10:10.106Z,92.03
2019-01-20T16:12:36.884Z,88.47
2019-01-20T16:15:09.824Z,90.40
2019-01-20T16:17:36.691Z,89.80
2019-01-20T16:20:06.898Z,101.47
2019-01-20T16:22:33.358Z,89.73
2019-01-20T16:24:59.790Z,105.17
2019-01-20T16:27:26.381Z,83.63
2019-01-20T16:29:52.814Z,82.13
2019-01-20T16:32:19.207Z,83.80
2019-01-20T16:34:45.585Z,83.30
2019-01-20T16:37:12.011Z,78.80
2019-01-20T16:39:38.435Z,76.50
2019-01-20T16:42:04.884Z,78.30
2019-01-20T16:44:31.245Z,88.97
2019-01-20T16:46:57.645Z,97.97
2019-01-20T16:49:23.959Z,82.93
2019-01-20T16:51:50.408Z,82.80
2019-01-20T16:54:16.743Z,77.27
2019-01-20T16:56:43.160Z,65.97
2019-01-20T16:59:09.585Z,54.53
2019-01-20T17:01:36.026Z,54.03
2019-01-20T17:04:02.386Z,55.97
2019-01-20T17:06:28.847Z,51.63
2019-01-20T17:08:55.266Z,64.00
2019-01-20T17:11:21.716Z,61.50
2019-01-20T17:13:48.130Z,56.13
2019-01-20T17:16:14.513Z,51.67
2019-01-20T17:18:41.616Z,64.03
2019-01-20T17:21:09.537Z,55.43
2019-01-20T17:23:36.407Z,48.03
2019-01-20T17:26:02.790Z,53.70
2019-01-20T17:28:29.126Z,54.93
2019-01-20T17:30:55.532Z,52.03
2019-01-20T17:33:21.926Z,63.60
2019-01-20T17:35:48.364Z,57.43
2019-01-20T17:38:14.896Z,62.63
2019-01-20T17:40:41.242Z,56.87
2019-01-20T17:43:07.653Z,53.40
2019-01-20T17:45:46.857Z,57.17
2019-01-20T17:48:07.801Z,75.30
2019-01-20T17:50:36.532Z,65.43
2019-01-20T17:53:03.793Z,60.77
2019-01-20T17:55:30.174Z,70.77
2019-01-20T17:57:56.532Z,79.47
2019-01-20T18:00:29.969Z,143.87
2019-01-20T18:02:56.297Z,236.50
2019-01-20T18:05:23.725Z,275.57
2019-01-20T18:07:50.055Z,238.73
2019-01-20T18:10:16.445Z,135.83
2019-01-20T18:12:43.927Z,90.67
2019-01-20T18:15:22.069Z,81.40
2019-01-20T18:17:48.508Z,67.07
2019-01-20T18:20:18.016Z,68.83
2019-01-20T18:22:44.369Z,54.87
2019-01-20T18:25:12.923Z,67.33
2019-01-20T18:27:39.252Z,63.60
2019-01-20T18:30:09.262Z,86.77
2019-01-20T18:32:35.608Z,77.77
2019-01-20T18:35:04.134Z,60.40
2019-01-20T18:37:30.524Z,65.43
2019-01-20T18:39:56.981Z,59.13
2019-01-20T18:42:23.329Z,52.97
2019-01-20T18:44:49.817Z,61.20
2019-01-20T18:47:16.180Z,54.97
2019-01-20T18:49:42.572Z,49.53
2019-01-20T18:52:09.097Z,49.17
2019-01-20T18:54:35.512Z,52.27
2019-01-20T18:57:01.915Z,56.43
2019-01-20T18:59:28.394Z,49.50
2019-01-20T19:01:54.839Z,57.03
2019-01-20T19:04:21.293Z,62.50
2019-01-20T19:06:47.703Z,49.10
2019-01-20T19:09:14.157Z,47.93
2019-01-20T19:11:40.576Z,54.73
2019-01-20T19:14:06.994Z,58.13
2019-01-20T19:16:33.385Z,59.47
2019-01-20T19:18:59.804Z,53.47
2019-01-20T19:21:26.360Z,55.93
2019-01-20T19:23:52.907Z,62.60
2019-01-20T19:26:19.361Z,60.70
2019-01-20T19:28:45.845Z,64.50
2019-01-20T19:31:12.495Z,60.83
2019-01-20T19:33:39.355Z,57.27
2019-01-20T19:36:05.827Z,54.27
2019-01-20T19:38:32.708Z,52.03
2019-01-20T19:40:59.211Z,51.37
2019-01-20T19:43:25.612Z,56.30
2019-01-20T19:45:52.075Z,59.17
2019-01-20T19:48:20.256Z,55.40
2019-01-20T19:50:46.961Z,62.20
2019-01-20T19:53:13.454Z,63.53
2019-01-20T19:55:39.888Z,70.97
2019-01-20T19:58:06.348Z,290.90
2019-01-20T20:00:32.833Z,375.20
2019-01-20T20:02:59.665Z,315.83
2019-01-20T20:05:26.538Z,286.10
2019-01-20T20:07:54.066Z,192.47
2019-01-20T20:10:22.686Z,87.80
2019-01-20T20:12:49.332Z,69.47
2019-01-20T20:15:20.849Z,74.00
2019-01-20T20:17:47.963Z,78.73
2019-01-20T20:20:15.895Z,64.40
2019-01-20T20:22:42.690Z,68.23
2019-01-20T20:25:11.690Z,64.60
2019-01-20T20:27:38.407Z,52.73
2019-01-20T20:30:08.818Z,53.27
2019-01-20T20:32:41.059Z,57.50
2019-01-20T20:35:08.195Z,67.80
2019-01-20T20:37:35.357Z,63.63
2019-01-20T20:40:04.171Z,57.23
2019-01-20T20:42:30.682Z,56.13
2019-01-20T20:44:57.072Z,63.77
2019-01-20T20:47:23.468Z,60.27
2019-01-20T20:49:52.013Z,61.30
2019-01-20T20:52:18.620Z,66.80
2019-01-20T20:54:45.053Z,65.40
2019-01-20T20:57:11.487Z,64.87
2019-01-20T20:59:38.662Z,65.90
2019-01-20T21:02:05.124Z,69.80
2019-01-20T21:04:31.598Z,66.07
2019-01-20T21:06:58.028Z,66.07
2019-01-20T21:09:24.570Z,71.13
2019-01-20T21:11:50.956Z,61.00
2019-01-20T21:14:17.744Z,75.27
2019-01-20T21:16:44.286Z,79.50
2019-01-20T21:19:11.294Z,65.43
2019-01-20T21:21:38.791Z,63.07
2019-01-20T21:24:07.662Z,64.10
2019-01-20T21:26:35.076Z,69.63
2019-01-20T21:29:01.396Z,63.97
2019-01-20T21:31:28.602Z,65.00
2019-01-20T21:33:55.797Z,71.10
2019-01-20T21:36:22.348Z,70.17
2019-01-20T21:38:52.617Z,76.33
2019-01-20T21:41:19.241Z,76.93
2019-01-20T21:43:46.187Z,78.00
2019-01-20T21:46:15.039Z,67.90
2019-01-20T21:48:41.694Z,66.27
2019-01-20T21:51:08.161Z,72.43
2019-01-20T21:53:34.617Z,79.97
2019-01-20T21:56:01.027Z,60.97
2019-01-20T21:58:27.436Z,69.10
2019-01-20T22:00:53.837Z,68.90
2019-01-20T22:03:20.282Z,62.63
2019-01-20T22:05:46.674Z,71.47
2019-01-20T22:08:13.038Z,64.03
2019-01-20T22:10:39.432Z,66.97
2019-01-20T22:13:05.773Z,55.73
2019-01-20T22:15:32.180Z,60.73
2019-01-20T22:17:58.527Z,58.03
2019-01-20T22:20:24.969Z,57.13
2019-01-20T22:22:51.398Z,50.97
2019-01-20T22:25:17.794Z,51.77
2019-01-20T22:27:44.169Z,56.63
2019-01-20T22:30:19.060Z,58.80
2019-01-20T22:32:45.489Z,66.87
2019-01-20T22:35:12.065Z,54.73
2019-01-20T22:37:38.554Z,60.33
2019-01-20T22:40:07.617Z,66.00
2019-01-20T22:42:34.054Z,62.07
2019-01-20T22:45:00.522Z,55.73
2019-01-20T22:47:26.938Z,45.30
2019-01-20T22:49:53.346Z,49.00
2019-01-20T22:52:19.753Z,58.83
2019-01-20T22:54:46.188Z,52.67
2019-01-20T22:57:12.667Z,56.97
2019-01-20T22:59:39.098Z,72.30
2019-01-20T23:02:05.573Z,80.87
2019-01-20T23:04:32.005Z,66.87
2019-01-20T23:06:58.422Z,52.70
2019-01-20T23:09:24.849Z,76.33
2019-01-20T23:11:51.222Z,61.40
2019-01-20T23:14:17.627Z,56.20
2019-01-20T23:16:44.061Z,60.33
2019-01-20T23:19:10.501Z,73.27
2019-01-20T23:21:36.906Z,59.53
2019-01-20T23:24:04.551Z,66.00
2019-01-20T23:26:30.999Z,201.87
2019-01-20T23:28:57.588Z,341.37
2019-01-20T23:31:24.005Z,300.80
2019-01-20T23:33:50.416Z,150.93
2019-01-20T23:36:16.824Z,93.70
2019-01-20T23:38:43.235Z,130.90
2019-01-20T23:41:09.642Z,67.53
2019-01-20T23:43:36.070Z,58.73
2019-01-20T23:46:02.484Z,60.63
2019-01-20T23:48:28.930Z,54.70
2019-01-20T23:50:55.802Z,58.33
2019-01-20T23:53:22.249Z,60.43
2019-01-20T23:55:48.627Z,58.60
2019-01-20T23:58:15.045Z,82.70
